Time;durP1;ratioP1;P1;durP2;ratioP2;P2;SDS_P1;SDS_P2;PMS_P1;PMS_P2;Temp;Humidity;BMP_temperature;BMP_pressure;BME280_temperature;BME280_humidity;BME280_pressure;Samples;Min_cycle;Max_cycle;Signal;HPM_P1;HPM_P2
2022/09/12 00:01:15;;;;;;;24.25;12.77;;;16.70;99.90;;;;;;5041457;28;20025;-76
2022/09/12 00:03:41;;;;;;;27.20;14.27;;;16.80;99.90;;;;;;5044696;28;20071;-76
2022/09/12 00:06:15;;;;;;;29.42;14.00;;;16.80;99.90;;;;;;5042543;28;20021;-75
2022/09/12 00:08:40;;;;;;;24.08;13.75;;;16.80;99.90;;;;;;5046311;28;20025;-75
2022/09/12 00:11:08;;;;;;;24.30;13.20;;;16.70;99.90;;;;;;5037571;28;20040;-75
2022/09/12 00:13:35;;;;;;;21.13;13.18;;;16.70;99.90;;;;;;5046984;28;20043;-76
2022/09/12 00:16:01;;;;;;;22.08;13.13;;;16.80;99.90;;;;;;5036391;28;20032;-76
2022/09/12 00:18:27;;;;;;;24.23;13.02;;;16.80;99.90;;;;;;5047068;28;20017;-75
2022/09/12 00:20:53;;;;;;;25.77;13.32;;;16.80;99.90;;;;;;5045424;28;20021;-76
2022/09/12 00:23:19;;;;;;;22.95;12.93;;;16.70;99.90;;;;;;5043145;28;20087;-76
2022/09/12 00:25:47;;;;;;;20.80;12.73;;;16.70;99.90;;;;;;5041728;28;21035;-76
2022/09/12 00:28:14;;;;;;;23.58;12.82;;;16.70;99.90;;;;;;5031424;28;20045;-76
2022/09/12 00:30:42;;;;;;;20.77;12.63;;;16.60;99.90;;;;;;5048737;28;20033;-76
2022/09/12 00:33:09;;;;;;;25.08;12.98;;;16.60;99.90;;;;;;5047394;28;20037;-76
2022/09/12 00:35:44;;;;;;;20.83;12.95;;;16.60;99.90;;;;;;5035473;28;20087;-75
2022/09/12 00:38:11;;;;;;;23.92;13.27;;;16.60;99.90;;;;;;5039563;28;20029;-77
2022/09/12 00:40:37;;;;;;;21.50;12.57;;;16.60;99.90;;;;;;5047751;28;20025;-77
2022/09/12 00:43:03;;;;;;;20.88;11.85;;;16.50;99.90;;;;;;5055808;28;20028;-76
2022/09/12 00:45:29;;;;;;;23.02;12.38;;;16.50;99.90;;;;;;5053776;28;20492;-77
2022/09/12 00:48:01;;;;;;;25.50;12.15;;;16.50;99.90;;;;;;5056999;28;20091;-77
2022/09/12 00:50:31;;;;;;;21.27;11.75;;;16.60;99.90;;;;;;5043232;28;20025;-75
2022/09/12 00:53:06;;;;;;;24.50;11.93;;;16.60;99.90;;;;;;5043788;28;20017;-77
2022/09/12 00:55:42;;;;;;;18.83;11.20;;;16.60;99.90;;;;;;5052158;28;20099;-77
2022/09/12 00:58:29;;;;;;;19.10;11.23;;;16.60;99.90;;;;;;5040240;28;20028;-75
2022/09/12 01:00:57;;;;;;;20.58;11.25;;;16.60;99.90;;;;;;5041395;28;20083;-77
2022/09/12 01:03:25;;;;;;;18.65;11.02;;;16.60;99.90;;;;;;5041392;28;20120;-75
2022/09/12 01:06:14;;;;;;;24.02;12.15;;;16.60;99.90;;;;;;5051041;28;20071;-77
2022/09/12 01:08:43;;;;;;;26.35;12.15;;;16.60;99.90;;;;;;5042984;28;20096;-77
2022/09/12 01:11:11;;;;;;;19.38;11.65;;;16.50;99.90;;;;;;5041120;28;20017;-77
2022/09/12 01:13:37;;;;;;;19.23;11.90;;;16.50;99.90;;;;;;5040105;28;20025;-76
2022/09/12 01:16:05;;;;;;;20.13;13.15;;;16.30;99.90;;;;;;5042689;28;20090;-75
2022/09/12 01:19:03;;;;;;;20.48;12.57;;;16.40;99.90;;;;;;5039564;28;20044;-75
2022/09/12 01:21:53;;;;;;;20.15;11.93;;;16.40;99.90;;;;;;5042642;28;20059;-76
2022/09/12 01:24:51;;;;;;;19.00;11.48;;;16.40;99.90;;;;;;5060240;28;20028;-75
2022/09/12 01:27:45;;;;;;;23.92;10.70;;;16.40;99.90;;;;;;5041346;28;20030;-75
2022/09/12 01:30:17;;;;;;;;;;;16.40;99.90;;;;;;5044363;28;20086;-76
2022/09/12 01:33:04;;;;;;;20.98;10.18;;;16.40;99.90;;;;;;5035942;28;20296;-75
2022/09/12 01:35:53;;;;;;;19.23;10.43;;;16.40;99.90;;;;;;5043576;28;20028;-75
2022/09/12 01:38:31;;;;;;;19.10;10.45;;;16.40;99.90;;;;;;5031802;28;20506;-76
2022/09/12 01:41:21;;;;;;;16.23;9.73;;;16.40;99.90;;;;;;5044464;28;20464;-76
2022/09/12 01:44:02;;;;;;;16.55;9.90;;;16.40;99.90;;;;;;5046365;28;20027;-76
2022/09/12 01:46:51;;;;;;;17.90;10.70;;;16.50;99.90;;;;;;5044655;28;20158;-75
2022/09/12 01:49:20;;;;;;;16.52;9.55;;;16.50;99.90;;;;;;5047089;28;20036;-75
2022/09/12 01:52:03;;;;;;;15.57;10.05;;;16.50;99.90;;;;;;5057216;28;20026;-75
2022/09/12 01:54:43;;;;;;;18.60;10.52;;;16.50;99.90;;;;;;5043987;28;20400;-76
2022/09/12 01:58:04;;;;;;;18.83;11.35;;;16.40;99.90;;;;;;5044926;28;20021;-76
2022/09/12 02:00:38;;;;;;;17.17;9.95;;;16.40;99.90;;;;;;5040747;28;20039;-75
2022/09/12 02:03:13;;;;;;;17.98;10.63;;;16.40;99.90;;;;;;5043514;28;20029;-77
2022/09/12 02:05:46;;;;;;;18.55;10.43;;;16.40;99.90;;;;;;5045211;28;20037;-76
2022/09/12 02:08:21;;;;;;;16.77;10.13;;;16.40;99.90;;;;;;5042894;28;20033;-76
2022/09/12 02:10:51;;;;;;;19.67;10.85;;;16.30;99.90;;;;;;5043503;28;20393;-77
2022/09/12 02:13:35;;;;;;;17.70;10.20;;;16.20;99.90;;;;;;5045344;28;20051;-77
2022/09/12 02:16:29;;;;;;;18.75;10.73;;;16.10;99.90;;;;;;5048393;28;20437;-76
2022/09/12 02:19:06;;;;;;;16.17;9.98;;;16.20;99.90;;;;;;5047945;28;20037;-76
2022/09/12 02:21:33;;;;;;;18.02;10.25;;;16.10;99.90;;;;;;5046008;28;20021;-76
2022/09/12 02:24:03;;;;;;;17.38;10.00;;;16.10;99.90;;;;;;5042410;28;20024;-77
2022/09/12 02:26:35;;;;;;;16.02;9.95;;;16.10;99.90;;;;;;5041118;28;20107;-76
2022/09/12 02:29:02;;;;;;;17.10;9.52;;;16.10;99.90;;;;;;5041567;28;20503;-76
2022/09/12 02:31:31;;;;;;;20.52;10.63;;;16.10;99.90;;;;;;5042981;28;20029;-75
2022/09/12 02:34:08;;;;;;;17.67;9.43;;;16.10;99.90;;;;;;5040783;28;20497;-75
2022/09/12 02:36:46;;;;;;;16.98;10.10;;;16.20;99.90;;;;;;5047480;28;20095;-76
2022/09/12 02:39:12;;;;;;;13.85;9.57;;;16.20;99.90;;;;;;5048952;28;20037;-76
2022/09/12 02:41:37;;;;;;;15.02;9.27;;;16.20;99.90;;;;;;5032779;28;20032;-77
2022/09/12 02:44:04;;;;;;;14.93;9.70;;;16.20;99.90;;;;;;5041440;28;20029;-75
2022/09/12 02:46:45;;;;;;;14.90;10.07;;;16.10;99.90;;;;;;5041391;28;20025;-76
2022/09/12 02:49:11;;;;;;;15.10;9.02;;;16.10;99.90;;;;;;5041593;28;20296;-76
2022/09/12 02:51:37;;;;;;;21.17;9.85;;;16.10;99.90;;;;;;5031949;28;20021;-77
2022/09/12 02:54:05;;;;;;;15.60;9.93;;;16.20;99.90;;;;;;5045225;28;20389;-76
2022/09/12 02:56:31;;;;;;;16.05;10.15;;;16.10;99.90;;;;;;5037599;28;20048;-77
2022/09/12 02:59:08;;;;;;;15.10;9.35;;;16.10;99.90;;;;;;5050125;28;20112;-77
2022/09/12 03:01:37;;;;;;;16.65;8.95;;;16.10;99.90;;;;;;5034955;28;20029;-76
2022/09/12 03:04:09;;;;;;;15.10;9.95;;;16.00;99.90;;;;;;5034216;28;20025;-76
2022/09/12 03:06:50;;;;;;;14.88;9.35;;;15.90;99.90;;;;;;5035508;28;20029;-76
2022/09/12 03:09:40;;;;;;;15.75;9.85;;;16.00;99.90;;;;;;5040831;28;20033;-76
2022/09/12 03:12:30;;;;;;;15.88;9.52;;;15.80;99.90;;;;;;5039126;28;20029;-76
2022/09/12 03:15:33;;;;;;;15.07;9.32;;;15.80;99.90;;;;;;5046341;28;20187;-76
2022/09/12 03:18:37;;;;;;;25.08;10.30;;;15.80;99.90;;;;;;5039976;28;20087;-76
2022/09/12 03:21:20;;;;;;;15.00;9.07;;;15.70;99.90;;;;;;5053868;28;20523;-76
2022/09/12 03:24:14;;;;;;;18.70;9.60;;;15.70;99.90;;;;;;5040183;28;20037;-77
2022/09/12 03:26:49;;;;;;;14.57;9.02;;;15.70;99.90;;;;;;5048879;28;20033;-76
2022/09/12 03:29:17;;;;;;;17.10;8.90;;;15.70;99.90;;;;;;5042985;28;20028;-76
2022/09/12 03:31:57;;;;;;;15.80;9.55;;;15.60;99.90;;;;;;5060738;28;20025;-76
2022/09/12 03:34:25;;;;;;;15.40;8.10;;;15.70;99.90;;;;;;5041409;28;20072;-77
2022/09/12 03:36:54;;;;;;;19.98;9.48;;;15.60;99.90;;;;;;5047726;28;20029;-77
2022/09/12 03:39:23;;;;;;;11.75;7.70;;;15.50;99.90;;;;;;5037626;28;20033;-76
2022/09/12 03:41:49;;;;;;;13.98;7.88;;;15.60;99.90;;;;;;5031905;28;20029;-76
2022/09/12 03:44:14;;;;;;;15.15;9.60;;;15.60;99.90;;;;;;5044674;28;20281;-76
2022/09/12 03:46:40;;;;;;;14.85;7.85;;;15.70;99.90;;;;;;5044385;28;20120;-76
2022/09/12 03:49:06;;;;;;;12.15;7.93;;;15.80;99.90;;;;;;5037705;28;20036;-76
2022/09/12 03:51:32;;;;;;;15.20;8.82;;;15.70;99.90;;;;;;5045756;28;20032;-76
2022/09/12 03:53:57;;;;;;;18.70;10.07;;;15.70;99.90;;;;;;5043724;28;20241;-76
2022/09/12 03:56:23;;;;;;;12.60;7.80;;;15.70;99.90;;;;;;5035830;28;20037;-77
2022/09/12 03:58:49;;;;;;;16.63;8.98;;;15.70;99.90;;;;;;5042917;28;20053;-76
2022/09/12 04:01:17;;;;;;;14.32;7.88;;;15.70;99.90;;;;;;5033853;28;20116;-75
2022/09/12 04:03:44;;;;;;;12.45;7.75;;;15.70;99.90;;;;;;5046786;28;20020;-75
2022/09/12 04:06:13;;;;;;;11.40;7.82;;;15.70;99.90;;;;;;5042312;28;20073;-75
2022/09/12 04:08:40;;;;;;;12.77;7.53;;;15.80;99.90;;;;;;5049685;28;20111;-76
2022/09/12 04:11:08;;;;;;;12.88;8.23;;;15.80;99.90;;;;;;5036117;28;20102;-76
2022/09/12 04:13:36;;;;;;;13.45;8.40;;;15.80;99.90;;;;;;5042123;28;20028;-76
2022/09/12 04:16:03;;;;;;;13.50;8.18;;;15.70;99.90;;;;;;5045956;28;20025;-76
2022/09/12 04:18:29;;;;;;;12.63;8.27;;;15.80;99.90;;;;;;5048288;28;20091;-76
2022/09/12 04:20:55;;;;;;;15.00;8.65;;;15.70;99.90;;;;;;5046028;28;20021;-76
2022/09/12 04:23:21;;;;;;;11.43;7.70;;;15.70;99.90;;;;;;5041495;28;20104;-77
2022/09/12 04:25:55;;;;;;;13.70;8.75;;;15.80;99.90;;;;;;5039557;28;20394;-77
2022/09/12 04:28:21;;;;;;;;;;;15.80;99.90;;;;;;5047027;28;20051;-78
2022/09/12 04:30:46;;;;;;;11.73;7.30;;;15.60;99.90;;;;;;5049412;28;20452;-76
2022/09/12 04:33:13;;;;;;;11.20;7.05;;;15.60;99.90;;;;;;5044388;28;20022;-76
2022/09/12 04:35:38;;;;;;;11.23;7.28;;;15.60;99.90;;;;;;5045716;28;20112;-76
2022/09/12 04:38:04;;;;;;;11.57;7.63;;;15.60;99.90;;;;;;5045105;28;20115;-77
2022/09/12 04:40:30;;;;;;;12.20;7.45;;;15.60;99.90;;;;;;5040869;28;20025;-77
2022/09/12 04:42:56;;;;;;;10.18;7.10;;;15.60;99.90;;;;;;5059220;28;20056;-76
2022/09/12 04:45:22;;;;;;;12.23;7.72;;;15.60;99.90;;;;;;5044214;28;20086;-76
2022/09/12 04:47:48;;;;;;;8.60;6.05;;;15.60;99.90;;;;;;5050383;28;20017;-76
2022/09/12 04:50:13;;;;;;;11.27;7.20;;;15.60;99.90;;;;;;5042417;28;20158;-76
2022/09/12 04:52:40;;;;;;;8.70;6.25;;;15.60;99.90;;;;;;5047956;28;20031;-77
2022/09/12 04:55:07;;;;;;;11.85;7.40;;;15.60;99.90;;;;;;5043219;28;20123;-77
2022/09/12 04:57:33;;;;;;;10.80;6.97;;;15.70;99.90;;;;;;5044708;28;20025;-77
2022/09/12 05:00:00;;;;;;;12.70;7.25;;;15.70;99.90;;;;;;5042841;28;20029;-76
2022/09/12 05:02:26;;;;;;;13.13;6.93;;;15.70;99.90;;;;;;5038638;28;20042;-76
2022/09/12 05:04:53;;;;;;;11.32;6.85;;;15.60;99.90;;;;;;5037410;28;20037;-77
2022/09/12 05:07:18;;;;;;;10.95;7.18;;;15.70;99.90;;;;;;5043838;28;20582;-76
2022/09/12 05:09:44;;;;;;;11.85;6.95;;;15.70;99.90;;;;;;5043004;28;20025;-76
2022/09/12 05:12:10;;;;;;;10.30;6.75;;;15.70;99.90;;;;;;5043818;28;20025;-76
2022/09/12 05:14:36;;;;;;;12.10;7.35;;;15.70;99.90;;;;;;5038883;28;20549;-76
2022/09/12 05:17:04;;;;;;;14.10;7.15;;;15.70;99.90;;;;;;5045540;28;20156;-76
2022/09/12 05:19:31;;;;;;;10.35;6.10;;;15.60;99.90;;;;;;5043073;28;20033;-77
2022/09/12 05:21:58;;;;;;;10.02;6.65;;;15.60;99.90;;;;;;5047819;28;20428;-76
2022/09/12 05:24:24;;;;;;;11.52;6.97;;;15.50;99.90;;;;;;5062465;28;20036;-76
2022/09/12 05:26:50;;;;;;;10.90;7.50;;;15.60;99.90;;;;;;5038684;28;20026;-76
2022/09/12 05:29:16;;;;;;;13.30;6.80;;;15.50;99.90;;;;;;5043478;28;20025;-76
2022/09/12 05:31:42;;;;;;;9.07;6.70;;;15.50;99.90;;;;;;5043720;28;20436;-77
2022/09/12 05:34:08;;;;;;;10.10;6.38;;;15.40;99.90;;;;;;5042277;28;20021;-77
2022/09/12 05:36:36;;;;;;;9.88;6.07;;;15.50;99.90;;;;;;5045567;28;20474;-77
2022/09/12 05:39:03;;;;;;;9.45;6.55;;;15.50;99.90;;;;;;5046532;28;20076;-77
2022/09/12 05:41:31;;;;;;;11.63;6.72;;;15.50;99.90;;;;;;5042442;28;20094;-77
2022/09/12 05:44:00;;;;;;;10.75;6.10;;;15.60;99.90;;;;;;5046613;28;20021;-78
2022/09/12 05:46:28;;;;;;;11.80;6.88;;;15.50;99.90;;;;;;5043171;28;20037;-77
2022/09/12 05:48:56;;;;;;;8.68;6.20;;;15.50;99.90;;;;;;5042300;28;20055;-77
2022/09/12 05:51:24;;;;;;;9.05;5.32;;;15.50;99.90;;;;;;5048310;28;20021;-77
2022/09/12 05:53:53;;;;;;;12.77;6.30;;;15.60;99.90;;;;;;5046835;28;20419;-77
2022/09/12 05:56:22;;;;;;;11.70;7.57;;;15.50;99.90;;;;;;5042946;28;20041;-76
2022/09/12 05:59:00;;;;;;;9.35;5.70;;;15.50;99.90;;;;;;5042824;28;20511;-77
2022/09/12 06:01:28;;;;;;;10.40;6.78;;;15.50;99.90;;;;;;5046837;28;20036;-77
2022/09/12 06:03:56;;;;;;;9.48;6.22;;;15.30;99.90;;;;;;5045391;28;20029;-78
2022/09/12 06:06:24;;;;;;;9.38;5.90;;;15.20;99.90;;;;;;5050065;28;20687;-77
2022/09/12 06:08:52;;;;;;;11.52;6.38;;;15.20;99.90;;;;;;5061621;28;20712;-77
2022/09/12 06:11:24;;;;;;;9.85;6.93;;;15.30;99.90;;;;;;5036798;28;20397;-78
2022/09/12 06:13:50;;;;;;;8.55;6.80;;;15.30;99.90;;;;;;5046822;28;20025;-78
2022/09/12 06:16:19;;;;;;;9.25;6.30;;;15.20;99.90;;;;;;5042242;28;20029;-77
2022/09/12 06:18:55;;;;;;;9.80;6.72;;;15.40;99.90;;;;;;5047935;28;20036;-76
2022/09/12 06:21:23;;;;;;;10.68;6.32;;;15.50;99.90;;;;;;5045268;28;20083;-77
2022/09/12 06:23:49;;;;;;;10.02;6.35;;;15.60;99.90;;;;;;5058995;28;20029;-78
2022/09/12 06:26:20;;;;;;;8.23;5.72;;;15.70;99.90;;;;;;5040183;28;20033;-77
2022/09/12 06:28:46;;;;;;;10.93;6.22;;;15.80;99.90;;;;;;5059609;28;20021;-77
2022/09/12 06:31:14;;;;;;;10.57;6.22;;;15.80;99.90;;;;;;5041686;28;20044;-77
2022/09/12 06:33:42;;;;;;;9.60;6.60;;;15.90;99.90;;;;;;5042952;28;20061;-77
2022/09/12 06:36:10;;;;;;;9.02;6.05;;;15.90;99.90;;;;;;5045098;28;20024;-77
2022/09/12 06:38:35;;;;;;;10.50;6.60;;;16.00;99.90;;;;;;5036454;28;20025;-77
2022/09/12 06:41:12;;;;;;;9.05;6.10;;;16.00;99.90;;;;;;5056950;28;20394;-78
2022/09/12 06:43:39;;;;;;;10.55;6.13;;;16.00;99.90;;;;;;5047829;28;20025;-77
2022/09/12 06:46:06;;;;;;;9.32;6.50;;;16.10;99.90;;;;;;5042915;28;20021;-77
2022/09/12 06:48:32;;;;;;;14.55;6.47;;;16.10;99.90;;;;;;5045748;28;20020;-76
2022/09/12 06:51:12;;;;;;;9.40;6.18;;;16.10;99.90;;;;;;5037333;28;20029;-76
2022/09/12 06:53:38;;;;;;;8.00;6.15;;;16.10;99.90;;;;;;5038176;28;20032;-76
2022/09/12 06:56:16;;;;;;;11.10;5.93;;;16.20;99.90;;;;;;5049952;28;20025;-76
2022/09/12 06:58:42;;;;;;;11.02;6.63;;;16.20;99.90;;;;;;5049314;28;20024;-76
2022/09/12 07:01:12;;;;;;;9.05;5.63;;;16.30;99.90;;;;;;5048956;28;20025;-76
2022/09/12 07:03:39;;;;;;;11.93;6.47;;;16.30;99.90;;;;;;5047810;28;20029;-76
2022/09/12 07:06:06;;;;;;;12.15;6.13;;;16.40;99.90;;;;;;5052589;28;20017;-75
2022/09/12 07:08:32;;;;;;;10.18;5.70;;;16.40;99.90;;;;;;5043584;28;20043;-75
2022/09/12 07:11:06;;;;;;;10.75;6.97;;;16.40;99.90;;;;;;5049779;28;20025;-76
2022/09/12 07:13:32;;;;;;;;;;;16.40;99.90;;;;;;5044777;28;20033;-76
2022/09/12 07:16:01;;;;;;;9.48;5.40;;;16.40;99.90;;;;;;5048264;28;20055;-76
2022/09/12 07:18:28;;;;;;;12.68;6.78;;;16.50;99.90;;;;;;5045258;28;20044;-76
2022/09/12 07:20:54;;;;;;;8.82;5.85;;;16.50;99.90;;;;;;5047423;28;20032;-76
2022/09/12 07:23:20;;;;;;;11.68;6.43;;;16.50;99.90;;;;;;5051394;28;20233;-76
2022/09/12 07:25:53;;;;;;;11.13;5.68;;;16.50;99.90;;;;;;5047244;28;20037;-76
2022/09/12 07:28:19;;;;;;;8.90;6.07;;;16.60;99.90;;;;;;5046089;28;20037;-77
2022/09/12 07:30:45;;;;;;;10.32;6.05;;;16.60;99.90;;;;;;5050643;28;20556;-77
2022/09/12 07:33:11;;;;;;;14.93;6.65;;;16.60;99.90;;;;;;5046829;28;20167;-77
2022/09/12 07:35:36;;;;;;;9.57;5.78;;;16.60;99.90;;;;;;5048442;28;20033;-76
2022/09/12 07:38:02;;;;;;;10.75;6.97;;;16.60;99.90;;;;;;5046888;28;20044;-76
2022/09/12 07:40:28;;;;;;;9.63;7.00;;;16.60;99.90;;;;;;5048297;28;20040;-76
2022/09/12 07:42:54;;;;;;;10.95;6.93;;;16.60;99.90;;;;;;5045673;28;20021;-77
2022/09/12 07:45:20;;;;;;;10.75;6.80;;;16.70;99.90;;;;;;5043811;28;20056;-76
2022/09/12 07:47:46;;;;;;;9.98;6.63;;;16.70;99.90;;;;;;5061811;28;20565;-76
2022/09/12 07:50:12;;;;;;;11.43;7.13;;;16.70;99.90;;;;;;5060858;28;20056;-76
2022/09/12 07:52:37;;;;;;;11.10;6.70;;;16.70;99.90;;;;;;5050595;28;20048;-76
2022/09/12 07:55:03;;;;;;;13.73;7.35;;;16.70;99.90;;;;;;5059247;28;20021;-75
2022/09/12 07:57:29;;;;;;;10.75;7.47;;;16.70;99.90;;;;;;5045426;28;20029;-76
2022/09/12 07:59:55;;;;;;;11.02;6.70;;;16.70;99.90;;;;;;5048131;28;20025;-76
2022/09/12 08:02:21;;;;;;;11.50;6.90;;;16.70;99.90;;;;;;5038544;28;20025;-76
2022/09/12 08:04:48;;;;;;;10.63;6.88;;;16.80;99.90;;;;;;5043995;28;20128;-77
2022/09/12 08:07:14;;;;;;;10.10;7.13;;;16.70;99.90;;;;;;5048956;28;20124;-77
2022/09/12 08:09:40;;;;;;;12.18;7.13;;;16.80;99.90;;;;;;5048628;28;20021;-77
2022/09/12 08:12:06;;;;;;;9.02;6.90;;;16.80;99.90;;;;;;5041478;28;20025;-76
2022/09/12 08:14:32;;;;;;;11.82;7.43;;;16.80;99.90;;;;;;5036696;28;20504;-76
2022/09/12 08:16:57;;;;;;;13.75;9.32;;;16.90;99.90;;;;;;5042674;28;20040;-76
2022/09/12 08:19:23;;;;;;;15.63;8.40;;;16.80;99.90;;;;;;5041380;28;20030;-77
2022/09/12 08:21:49;;;;;;;12.45;7.90;;;16.90;99.90;;;;;;5046456;28;20644;-77
2022/09/12 08:24:15;;;;;;;10.50;7.53;;;16.90;99.90;;;;;;5048354;28;20037;-76
2022/09/12 08:26:41;;;;;;;10.77;7.68;;;16.90;99.90;;;;;;5044048;28;20194;-77
2022/09/12 08:29:07;;;;;;;11.40;7.53;;;17.00;99.90;;;;;;5045325;28;20507;-76
2022/09/12 08:31:35;;;;;;;14.23;8.27;;;17.00;99.90;;;;;;5040727;28;20025;-77
2022/09/12 08:34:04;;;;;;;13.60;9.25;;;17.00;99.90;;;;;;5047486;28;20017;-77
2022/09/12 08:36:30;;;;;;;12.00;7.57;;;17.00;99.90;;;;;;5045839;28;20120;-77
2022/09/12 08:39:01;;;;;;;11.95;7.75;;;17.00;99.90;;;;;;5039576;28;20036;-76
2022/09/12 08:41:37;;;;;;;11.55;7.95;;;17.10;99.90;;;;;;5044225;28;20033;-77
2022/09/12 08:44:21;;;;;;;11.45;8.07;;;17.10;99.90;;;;;;5041915;28;20021;-76
2022/09/12 08:46:46;;;;;;;12.82;7.60;;;17.10;99.90;;;;;;5040878;28;20030;-77
2022/09/12 08:49:18;;;;;;;13.07;7.43;;;17.10;99.90;;;;;;5046675;28;20630;-77
2022/09/12 08:51:44;;;;;;;10.88;8.07;;;17.10;99.90;;;;;;5047459;28;20090;-77
2022/09/12 08:54:22;;;;;;;10.88;7.40;;;17.10;99.90;;;;;;5060278;28;20141;-77
2022/09/12 08:56:48;;;;;;;11.18;7.72;;;17.10;99.90;;;;;;5039504;28;20033;-77
2022/09/12 08:59:15;;;;;;;11.82;7.75;;;17.10;99.90;;;;;;5047457;28;20439;-77
2022/09/12 09:01:50;;;;;;;9.32;7.50;;;17.20;99.90;;;;;;5042513;28;20279;-76
2022/09/12 09:04:31;;;;;;;9.88;7.35;;;17.10;99.90;;;;;;5046229;28;20029;-76
2022/09/12 09:07:19;;;;;;;9.50;6.72;;;17.20;99.90;;;;;;5046355;28;20033;-76
2022/09/12 09:09:54;;;;;;;12.13;7.70;;;17.20;99.90;;;;;;5042254;28;20026;-76
2022/09/12 09:12:56;;;;;;;11.80;8.68;;;17.20;99.90;;;;;;5050442;28;20370;-76
2022/09/12 09:15:31;;;;;;;10.52;7.65;;;17.30;99.90;;;;;;5037228;28;20021;-76
2022/09/12 09:18:09;;;;;;;13.00;8.30;;;17.20;99.90;;;;;;5036555;28;20570;-76
2022/09/12 09:20:40;;;;;;;11.35;7.53;;;17.30;99.90;;;;;;5040971;28;20040;-76
2022/09/12 09:23:32;;;;;;;11.30;7.20;;;17.30;99.90;;;;;;5043301;28;20489;-76
2022/09/12 09:26:27;;;;;;;9.88;7.55;;;17.30;99.90;;;;;;5048556;28;20033;-77
2022/09/12 09:29:00;;;;;;;9.48;6.72;;;17.30;99.90;;;;;;5047846;28;20075;-77
2022/09/12 09:31:32;;;;;;;9.98;6.97;;;17.30;99.90;;;;;;5040876;28;20028;-77
2022/09/12 09:33:58;;;;;;;10.77;6.53;;;17.40;99.90;;;;;;5042826;28;20413;-77
2022/09/12 09:36:42;;;;;;;9.32;7.45;;;17.40;99.90;;;;;;5041978;28;20036;-76
2022/09/12 09:39:17;;;;;;;;;;;17.40;99.90;;;;;;5039867;28;20068;-77
2022/09/12 09:41:52;;;;;;;9.52;6.78;;;17.40;99.90;;;;;;5044565;28;19915;-76
2022/09/12 09:44:18;;;;;;;9.50;6.13;;;17.40;99.90;;;;;;5044326;28;20516;-76
2022/09/12 09:46:43;;;;;;;10.00;7.32;;;17.50;99.90;;;;;;5045607;28;20037;-77
2022/09/12 09:49:13;;;;;;;12.05;7.53;;;17.50;99.90;;;;;;5041501;28;20436;-77
2022/09/12 09:51:41;;;;;;;10.65;7.25;;;17.50;99.90;;;;;;5044695;28;20051;-77
2022/09/12 09:54:24;;;;;;;12.55;7.03;;;17.60;99.90;;;;;;5046065;28;20654;-77
2022/09/12 09:56:50;;;;;;;9.07;6.87;;;17.60;99.90;;;;;;5061740;28;20082;-76
2022/09/12 09:59:31;;;;;;;7.68;6.18;;;17.60;99.90;;;;;;5044844;28;20838;-77
2022/09/12 10:02:22;;;;;;;10.95;7.95;;;17.60;99.90;;;;;;5041141;28;20033;-78
2022/09/12 10:04:58;;;;;;;8.68;6.22;;;17.60;99.90;;;;;;5043162;28;20056;-77
2022/09/12 10:07:25;;;;;;;9.10;6.22;;;17.70;99.90;;;;;;5040772;28;20061;-77
2022/09/12 10:10:17;;;;;;;9.82;6.55;;;17.70;99.90;;;;;;5037970;28;20025;-77
2022/09/12 10:12:43;;;;;;;8.00;6.57;;;17.70;99.90;;;;;;5033287;28;20028;-76
2022/09/12 10:15:21;;;;;;;9.15;6.57;;;17.70;99.90;;;;;;5045211;28;20573;-77
2022/09/12 10:17:49;;;;;;;19.00;6.95;;;17.70;99.90;;;;;;5041998;28;20505;-77
2022/09/12 10:20:35;;;;;;;11.80;6.28;;;17.70;99.90;;;;;;5044089;28;20485;-78
2022/09/12 10:23:29;;;;;;;8.98;6.03;;;17.70;99.90;;;;;;5045620;28;20517;-77
2022/09/12 10:25:59;;;;;;;8.48;6.35;;;17.70;99.90;;;;;;5044144;28;20029;-77
2022/09/12 10:28:53;;;;;;;8.40;7.00;;;17.80;99.90;;;;;;5035754;28;20083;-77
2022/09/12 10:31:27;;;;;;;9.55;7.22;;;17.80;99.90;;;;;;5041654;28;20036;-77
2022/09/12 10:33:58;;;;;;;9.57;6.95;;;17.80;99.90;;;;;;5044524;28;20067;-77
2022/09/12 10:36:25;;;;;;;10.45;6.50;;;17.90;99.90;;;;;;5040440;28;20885;-76
2022/09/12 10:38:57;;;;;;;9.88;6.78;;;17.90;99.90;;;;;;5042333;28;20033;-77
2022/09/12 10:41:23;;;;;;;9.63;6.43;;;17.90;99.90;;;;;;5047015;28;20068;-76
2022/09/12 10:43:49;;;;;;;7.95;5.70;;;17.90;99.90;;;;;;5047966;28;20021;-76
2022/09/12 10:46:18;;;;;;;7.97;5.82;;;17.90;99.90;;;;;;5036454;28;20033;-76
2022/09/12 10:49:08;;;;;;;10.43;6.03;;;17.90;99.90;;;;;;5042517;28;20108;-76
2022/09/12 10:51:33;;;;;;;7.68;5.50;;;18.00;99.90;;;;;;5038811;28;20021;-76
2022/09/12 10:54:07;;;;;;;9.15;6.18;;;18.00;99.90;;;;;;5035748;28;20017;-76
2022/09/12 10:56:41;;;;;;;6.85;5.53;;;18.00;99.90;;;;;;5040832;28;20022;-76
2022/09/12 10:59:26;;;;;;;7.22;5.70;;;18.00;99.90;;;;;;5040236;28;20116;-76
2022/09/12 11:01:59;;;;;;;7.70;4.80;;;18.00;99.90;;;;;;5042864;28;20485;-76
2022/09/12 11:04:37;;;;;;;6.88;5.35;;;18.10;99.90;;;;;;5039042;28;20063;-76
2022/09/12 11:07:25;;;;;;;8.52;4.78;;;18.10;99.90;;;;;;5040551;28;20508;-77
2022/09/12 11:09:57;;;;;;;7.43;4.72;;;18.20;99.90;;;;;;5044282;28;20489;-75
2022/09/12 11:12:49;;;;;;;7.35;4.82;;;18.20;99.90;;;;;;5046673;28;20036;-76
2022/09/12 11:15:26;;;;;;;6.75;4.88;;;18.20;99.90;;;;;;5010500;28;20052;-76
2022/09/12 11:17:54;;;;;;;8.20;4.95;;;18.20;99.90;;;;;;5036217;28;20400;-77
2022/09/12 11:20:24;;;;;;;5.55;4.38;;;18.30;99.90;;;;;;5033027;28;20033;-76
2022/09/12 11:23:16;;;;;;;8.60;4.85;;;18.30;99.90;;;;;;5036757;28;20029;-76
2022/09/12 11:25:48;;;;;;;5.30;4.68;;;18.30;99.90;;;;;;5054350;28;20033;-76
2022/09/12 11:28:42;;;;;;;5.10;4.55;;;18.30;99.90;;;;;;5042015;28;20060;-76
2022/09/12 11:31:31;;;;;;;6.63;4.30;;;18.30;99.90;;;;;;5042091;28;20499;-76
2022/09/12 11:33:59;;;;;;;6.35;4.35;;;18.30;99.90;;;;;;5043479;28;20033;-76
2022/09/12 11:36:50;;;;;;;6.28;5.28;;;18.30;99.90;;;;;;5041855;28;20387;-76
2022/09/12 11:39:41;;;;;;;6.50;4.65;;;18.30;99.90;;;;;;5044753;28;20572;-76
2022/09/12 11:42:18;;;;;;;6.03;4.68;;;18.40;99.90;;;;;;5036615;28;20254;-76
2022/09/12 11:45:03;;;;;;;4.90;3.90;;;18.40;99.90;;;;;;5051305;28;20029;-77
2022/09/12 11:47:31;;;;;;;6.45;4.32;;;18.40;99.90;;;;;;5044831;28;20090;-76
2022/09/12 11:49:58;;;;;;;5.35;3.92;;;18.40;99.90;;;;;;5049888;28;20120;-76
2022/09/12 11:52:28;;;;;;;4.82;3.83;;;18.50;99.90;;;;;;5048411;28;20115;-76
2022/09/12 11:55:04;;;;;;;4.05;3.30;;;18.50;99.90;;;;;;5049736;28;20021;-77
2022/09/12 11:57:42;;;;;;;4.40;3.30;;;18.50;99.90;;;;;;5049812;28;20032;-76
2022/09/12 12:00:14;;;;;;;5.70;3.15;;;18.50;99.90;;;;;;5046097;28;20100;-76
2022/09/12 12:03:12;;;;;;;4.45;3.08;;;18.50;99.90;;;;;;5045120;28;20424;-76
2022/09/12 12:05:56;;;;;;;3.85;3.35;;;18.50;99.90;;;;;;5043925;28;20133;-76
2022/09/12 12:08:22;;;;;;;;;;;18.50;99.90;;;;;;5063553;28;20397;-76
2022/09/12 12:10:56;;;;;;;3.15;2.25;;;18.50;99.90;;;;;;5052189;28;19959;-76
2022/09/12 12:13:33;;;;;;;5.82;2.58;;;18.50;99.90;;;;;;5045912;28;20040;-76
2022/09/12 12:16:06;;;;;;;3.47;2.55;;;18.60;99.90;;;;;;5040032;28;20029;-77
2022/09/12 12:18:35;;;;;;;5.78;3.75;;;18.60;99.90;;;;;;5040186;28;20036;-77
2022/09/12 12:21:26;;;;;;;3.00;2.63;;;18.70;99.90;;;;;;5042192;28;20041;-76
2022/09/12 12:24:06;;;;;;;2.78;2.30;;;18.70;99.90;;;;;;5054705;28;20029;-76
2022/09/12 12:26:41;;;;;;;2.95;2.20;;;18.70;99.90;;;;;;5047602;28;20033;-77
2022/09/12 12:29:12;;;;;;;3.88;2.90;;;18.80;99.90;;;;;;5042761;28;20036;-77
2022/09/12 12:32:02;;;;;;;6.15;3.38;;;18.70;99.90;;;;;;5040608;28;20025;-76
2022/09/12 12:34:32;;;;;;;3.35;2.85;;;18.70;99.90;;;;;;5037975;28;20022;-76
2022/09/12 12:37:22;;;;;;;4.97;2.97;;;18.80;99.90;;;;;;5050947;28;20025;-76
2022/09/12 12:40:03;;;;;;;6.28;3.42;;;18.70;99.90;;;;;;5038126;28;20108;-76
2022/09/12 12:42:32;;;;;;;2.92;2.55;;;18.80;99.90;;;;;;5041428;28;20037;-76
2022/09/12 12:45:19;;;;;;;4.10;2.50;;;18.80;99.90;;;;;;5046783;28;20104;-76
2022/09/12 12:47:47;;;;;;;2.92;2.38;;;18.80;99.90;;;;;;5031967;28;20040;-76
2022/09/12 12:50:24;;;;;;;3.72;2.65;;;18.80;99.90;;;;;;5041903;28;20021;-75
2022/09/12 12:53:15;;;;;;;3.45;2.60;;;18.80;99.90;;;;;;5044769;28;20082;-77
2022/09/12 12:55:40;;;;;;;2.78;2.42;;;18.80;99.90;;;;;;5059828;28;20093;-76
2022/09/12 12:58:22;;;;;;;3.15;2.15;;;18.80;99.90;;;;;;5044302;28;20141;-76
2022/09/12 13:01:15;;;;;;;5.65;2.25;;;18.90;99.90;;;;;;5053448;28;20053;-76
2022/09/12 13:03:45;;;;;;;4.00;2.60;;;18.90;99.90;;;;;;5066920;28;20190;-77
2022/09/12 13:06:38;;;;;;;5.43;2.65;;;19.00;99.90;;;;;;5058899;28;20115;-77
2022/09/12 13:09:17;;;;;;;9.43;5.82;;;19.00;99.90;;;;;;5041392;28;20047;-76